EJU57RG EGKK-LIMC
Flight info
| Callsign | EJU57RG |
|---|---|
| Flight time | N/A |
| Altitude | 23000 |
| Route | DVR L9 KONAN/N0432F350 DCT KOK DCT CIV DCT SUTAL DCT GTQ DCT OBORN DCT DEVDI DCT BASGO/N0408F290 Z424 AKASU/N0347F190 Z424 RIXUV |
| Aircraft | A320/M-SDE2E3FGHIJ1RWXYZ/LB1 |
Departure
| Time | 2026-05-04 11:34 |
|---|---|
| Airport | London Gatwick Airport (EGKK) |
Arrival
| Time | N/A |
|---|---|
| Airport | Milan Malpensa International Airport (LIMC) |
| Time | Latitude | Longitude | Altitude | Speed | Heading |
|---|---|---|---|---|---|
| 2026-05-04 10:51 | 51.15655 | -0.17604 | 211 ft | 0 kts | 168° |
| 2026-05-04 11:22 | 51.15751 | -0.17586 | 216 ft | 1 kts | 257° |
| 2026-05-04 11:22 | 51.15751 | -0.17584 | 216 ft | 0 kts | 257° |
| 2026-05-04 11:24 | 51.15745 | -0.17630 | 208 ft | 14 kts | 257° |
| 2026-05-04 11:25 | 51.15734 | -0.17705 | 213 ft | 0 kts | 257° |
| 2026-05-04 11:25 | 51.15728 | -0.17752 | 208 ft | 11 kts | 257° |
| 2026-05-04 11:25 | 51.15711 | -0.17868 | 204 ft | 10 kts | 257° |
| 2026-05-04 11:26 | 51.15685 | -0.18060 | 213 ft | 10 kts | 258° |
| 2026-05-04 11:27 | 51.15190 | -0.18266 | 207 ft | 16 kts | 253° |
| 2026-05-04 11:28 | 51.15170 | -0.18440 | 211 ft | 15 kts | 257° |
| 2026-05-04 11:28 | 51.15150 | -0.18590 | 203 ft | 13 kts | 257° |
| 2026-05-04 11:28 | 51.15125 | -0.18771 | 208 ft | 18 kts | 258° |
| 2026-05-04 11:28 | 51.15100 | -0.18950 | 210 ft | 15 kts | 257° |
| 2026-05-04 11:29 | 51.15074 | -0.19143 | 205 ft | 20 kts | 257° |
| 2026-05-04 11:29 | 51.15045 | -0.19350 | 204 ft | 19 kts | 258° |
| 2026-05-04 11:29 | 51.15019 | -0.19542 | 208 ft | 17 kts | 257° |
| 2026-05-04 11:29 | 51.14994 | -0.19719 | 204 ft | 19 kts | 257° |
| 2026-05-04 11:31 | 51.14785 | -0.21175 | 213 ft | 14 kts | 249° |
| 2026-05-04 11:33 | 51.14531 | -0.21097 | 206 ft | 11 kts | 79° |
| 2026-05-04 11:33 | 51.14575 | -0.20783 | 205 ft | 64 kts | 77° |
| 2026-05-04 11:33 | 51.14731 | -0.19668 | 210 ft | 139 kts | 77° |
| 2026-05-04 11:34 | 51.14983 | -0.17932 | 568 ft | 168 kts | 76° |
| 2026-05-04 11:34 | 51.15279 | -0.16102 | 1435 ft | 174 kts | 76° |
| 2026-05-04 11:34 | 51.15566 | -0.14125 | 2080 ft | 194 kts | 78° |
| 2026-05-04 11:34 | 51.15858 | -0.11890 | 2635 ft | 219 kts | 78° |
| 2026-05-04 11:35 | 51.16137 | -0.09727 | 3210 ft | 241 kts | 78° |
| 2026-05-04 11:35 | 51.16491 | -0.07015 | 4028 ft | 257 kts | 78° |
| 2026-05-04 11:35 | 51.16850 | -0.04177 | 4800 ft | 264 kts | 83° |
| 2026-05-04 11:35 | 51.16864 | -0.01228 | 5600 ft | 269 kts | 92° |
| 2026-05-04 11:36 | 51.16802 | 0.01777 | 6375 ft | 274 kts | 93° |
| 2026-05-04 11:36 | 51.16743 | 0.04796 | 7135 ft | 278 kts | 92° |
| 2026-05-04 11:36 | 51.16683 | 0.07899 | 7915 ft | 282 kts | 93° |
| 2026-05-04 11:36 | 51.16624 | 0.11045 | 8715 ft | 286 kts | 93° |
| 2026-05-04 11:37 | 51.16568 | 0.14031 | 9455 ft | 289 kts | 93° |
| 2026-05-04 11:37 | 51.16526 | 0.16623 | 10068 ft | 292 kts | 92° |
| 2026-05-04 11:37 | 51.16513 | 0.19881 | 10789 ft | 296 kts | 91° |
| 2026-05-04 11:37 | 51.16526 | 0.23180 | 11511 ft | 300 kts | 91° |
| 2026-05-04 11:38 | 51.16546 | 0.26525 | 12233 ft | 303 kts | 91° |
| 2026-05-04 11:38 | 51.16565 | 0.29918 | 12749 ft | 315 kts | 91° |
| 2026-05-04 11:38 | 51.16576 | 0.33535 | 12904 ft | 338 kts | 91° |
| 2026-05-04 11:38 | 51.16584 | 0.37401 | 13043 ft | 359 kts | 91° |
| 2026-05-04 11:39 | 51.16589 | 0.41467 | 13407 ft | 371 kts | 91° |
| 2026-05-04 11:39 | 51.16593 | 0.45609 | 13985 ft | 376 kts | 91° |
| 2026-05-04 11:40 | 51.16583 | 0.71176 | 17494 ft | 393 kts | 91° |
| 2026-05-04 11:41 | 51.16572 | 0.75498 | 18042 ft | 396 kts | 92° |
| 2026-05-04 11:41 | 51.16558 | 0.79907 | 18545 ft | 399 kts | 92° |
| 2026-05-04 11:41 | 51.16541 | 0.84349 | 19005 ft | 402 kts | 92° |
| 2026-05-04 11:41 | 51.16524 | 0.88829 | 19453 ft | 406 kts | 92° |
| 2026-05-04 11:42 | 51.16505 | 0.93344 | 19894 ft | 409 kts | 92° |
| 2026-05-04 11:42 | 51.16486 | 0.97901 | 20312 ft | 413 kts | 92° |
| 2026-05-04 11:42 | 51.16467 | 1.02499 | 20723 ft | 417 kts | 92° |
| 2026-05-04 11:42 | 51.16447 | 1.07145 | 21135 ft | 421 kts | 92° |
| 2026-05-04 11:43 | 51.16423 | 1.11814 | 21545 ft | 424 kts | 92° |
| 2026-05-04 11:43 | 51.16393 | 1.16530 | 21958 ft | 427 kts | 92° |
| 2026-05-04 11:43 | 51.16360 | 1.21283 | 22364 ft | 431 kts | 92° |
| 2026-05-04 11:43 | 51.16327 | 1.26081 | 22764 ft | 434 kts | 92° |
| 2026-05-04 11:44 | 51.16294 | 1.30902 | 23153 ft | 437 kts | 92° |
| 2026-05-04 11:44 | 51.16263 | 1.35765 | 23535 ft | 440 kts | 92° |
| 2026-05-04 11:44 | 51.16220 | 1.40656 | 23859 ft | 443 kts | 92° |
| 2026-05-04 11:44 | 51.16169 | 1.45574 | 23996 ft | 444 kts | 92° |
| 2026-05-04 11:45 | 51.16120 | 1.50485 | 24028 ft | 443 kts | 92° |
| 2026-05-04 11:45 | 51.16070 | 1.55399 | 24030 ft | 443 kts | 93° |
| 2026-05-04 11:45 | 51.16020 | 1.60312 | 24030 ft | 443 kts | 93° |
| 2026-05-04 11:45 | 51.15969 | 1.65219 | 24030 ft | 443 kts | 93° |
| 2026-05-04 11:46 | 51.15917 | 1.70126 | 24031 ft | 443 kts | 93° |
| 2026-05-04 11:46 | 51.15864 | 1.75041 | 24029 ft | 443 kts | 93° |
| 2026-05-04 11:46 | 51.15812 | 1.79876 | 24030 ft | 443 kts | 93° |
| 2026-05-04 11:46 | 51.15757 | 1.84787 | 24030 ft | 443 kts | 93° |
| 2026-05-04 11:47 | 51.15702 | 1.89689 | 24029 ft | 443 kts | 93° |
| 2026-05-04 11:47 | 51.15658 | 1.94597 | 24012 ft | 443 kts | 93° |
| 2026-05-04 11:47 | 51.15622 | 1.99509 | 24013 ft | 443 kts | 93° |
| 2026-05-04 11:47 | 51.15587 | 2.04413 | 24013 ft | 443 kts | 93° |
| 2026-05-04 11:48 | 51.15550 | 2.09324 | 24011 ft | 443 kts | 93° |
| 2026-05-04 11:48 | 51.15513 | 2.14245 | 24012 ft | 443 kts | 93° |
| 2026-05-04 11:48 | 51.15476 | 2.19149 | 24013 ft | 443 kts | 93° |
| 2026-05-04 11:48 | 51.15437 | 2.24065 | 24013 ft | 443 kts | 93° |
| 2026-05-04 11:49 | 51.15398 | 2.28972 | 24012 ft | 443 kts | 93° |
| 2026-05-04 11:49 | 51.15359 | 2.33875 | 24012 ft | 443 kts | 93° |
| 2026-05-04 11:49 | 51.15320 | 2.38783 | 24004 ft | 443 kts | 93° |
| 2026-05-04 11:49 | 51.15279 | 2.43688 | 24001 ft | 443 kts | 93° |
| 2026-05-04 11:50 | 51.15237 | 2.48599 | 23998 ft | 444 kts | 93° |
| 2026-05-04 11:50 | 51.15195 | 2.53513 | 23999 ft | 444 kts | 93° |
| 2026-05-04 11:50 | 51.15153 | 2.58368 | 24000 ft | 445 kts | 93° |
| 2026-05-04 11:50 | 51.15109 | 2.63301 | 24002 ft | 445 kts | 93° |
| 2026-05-04 11:51 | 51.15064 | 2.68231 | 24001 ft | 445 kts | 93° |
| 2026-05-04 11:51 | 51.15018 | 2.73166 | 24004 ft | 446 kts | 93° |
| 2026-05-04 11:51 | 51.14972 | 2.78108 | 24008 ft | 446 kts | 93° |
| 2026-05-04 11:51 | 51.14924 | 2.83039 | 24015 ft | 446 kts | 93° |
| 2026-05-04 11:52 | 51.14881 | 2.87979 | 24020 ft | 445 kts | 93° |
| 2026-05-04 11:52 | 51.14858 | 2.91883 | 24037 ft | 444 kts | 93° |